Time;durP1;ratioP1;P1;durP2;ratioP2;P2;SDS_P1;SDS_P2;PMS_P1;PMS_P2;Temp;Humidity;BMP_temperature;BMP_pressure;BME280_temperature;BME280_humidity;BME280_pressure;Samples;Min_cycle;Max_cycle;Signal;HPM_P1;HPM_P2
2022/04/23 00:01:20;;;;;;;;;;;;;;;;;;2218637;58;1960;-70
2022/04/23 00:03:53;;;;;;;;;;;;;;;;;;2218291;66;1220;-70
2022/04/23 00:06:26;;;;;;;;;;;;;;;;;;2218326;66;1301;-70
2022/04/23 00:09:00;;;;;;;;;;;;;;;;;;2218526;59;1972;-70
2022/04/23 00:11:34;;;;;;;;;;;;;;;;;;2219171;58;1428;-70
2022/04/23 00:14:07;;;;;;;;;;;;;;;;;;2219010;58;1729;-70
2022/04/23 00:16:44;;;;;;;;;;;;;;;;;;2218168;66;1227;-70
2022/04/23 00:19:17;;;;;;;;;;;;;;;;;;2217307;58;1715;-70
2022/04/23 00:21:50;;;;;;;;;;;;;;;;;;2219212;66;1354;-70
2022/04/23 00:24:23;;;;;;;;;;;;;;;;;;2218505;58;1695;-70
2022/04/23 00:26:56;;;;;;;;;;;;;;;;;;2218421;58;2125;-70
2022/04/23 00:29:29;;;;;;;;;;;;;;;;;;2219255;59;1342;-71
2022/04/23 00:32:05;;;;;;;;;;;;;;;;;;2218048;66;1290;-70
2022/04/23 00:34:39;;;;;;;;;;;;;;;;;;2220647;66;1160;-70
2022/04/23 00:37:13;;;;;;;;;;;;;;;;;;2217958;66;1240;-70
2022/04/23 00:39:48;;;;;;;;;;;;;;;;;;2219812;58;1758;-70
2022/04/23 00:42:21;;;;;;;;;;;;;;;;;;2218452;58;1230;-70
2022/04/23 00:44:54;;;;;;;;;;;;;;;;;;2218277;59;1184;-70
2022/04/23 00:47:30;;;;;;;;;;;;;;;;;;2216907;58;2003;-70
2022/04/23 00:50:04;;;;;;;;;;;;;;;;;;2218058;59;1512;-70
2022/04/23 00:52:37;;;;;;;;;;;;;;;;;;2216382;66;1233;-70
2022/04/23 00:55:11;;;;;;;;;;;;;;;;;;2217885;59;1225;-70
2022/04/23 00:57:44;;;;;;;;;;;;;;;;;;2216632;66;1160;-70
2022/04/23 01:00:18;;;;;;;;;;;;;;;;;;2227600;53;3560;-70
2022/04/23 01:02:55;;;;;;;;;;;;;;;;;;2215776;58;1710;-70
2022/04/23 01:05:28;;;;;;;;;;;;;;;;;;2217059;58;1237;-70
2022/04/23 01:08:02;;;;;;;;;;;;;;;;;;2217917;58;1988;-70
2022/04/23 01:10:35;;;;;;;;;;;;;;;;;;2216782;66;1226;-70
2022/04/23 01:13:09;;;;;;;;;;;;;;;;;;2216461;58;1497;-70
2022/04/23 01:15:43;;;;;;;;;;;;;;;;;;2216966;66;1204;-70
2022/04/23 01:18:19;;;;;;;;;;;;;;;;;;2217417;58;1351;-70
2022/04/23 01:20:55;;;;;;;;;;;;;;;;;;2216442;58;1836;-70
2022/04/23 01:23:29;;;;;;;;;;;;;;;;;;2216986;59;1263;-70
2022/04/23 01:26:04;;;;;;;;;;;;;;;;;;2217143;66;1106;-70
2022/04/23 01:28:37;;;;;;;;;;;;;;;;;;2217704;66;1924;-70
2022/04/23 01:31:10;;;;;;;;;;;;;;;;;;2216908;58;1665;-70
2022/04/23 01:33:43;;;;;;;;;;;;;;;;;;2216320;58;2382;-70
2022/04/23 01:36:19;;;;;;;;;;;;;;;;;;2217666;58;1132;-70
2022/04/23 01:38:53;;;;;;;;;;;;;;;;;;2217764;66;1143;-70
2022/04/23 01:41:26;;;;;;;;;;;;;;;;;;2216977;58;2018;-70
2022/04/23 01:43:59;;;;;;;;;;;;;;;;;;2216874;59;1201;-70
2022/04/23 01:46:32;;;;;;;;;;;;;;;;;;2213250;66;1484;-70
2022/04/23 01:49:05;;;;;;;;;;;;;;;;;;2214863;59;1919;-70
2022/04/23 01:51:41;;;;;;;;;;;;;;;;;;2213133;66;1570;-70
2022/04/23 01:54:14;;;;;;;;;;;;;;;;;;2216866;66;1261;-71
2022/04/23 01:56:47;;;;;;;;;;;;;;;;;;2218140;66;1212;-71
2022/04/23 01:59:21;;;;;;;;;;;;;;;;;;2217293;58;1847;-70
2022/04/23 02:01:54;;;;;;;;;;;;;;;;;;2215598;59;1227;-70
2022/04/23 02:04:27;;;;;;;;;;;;;;;;;;2217852;58;1264;-70
2022/04/23 02:07:03;;;;;;;;;;;;;;;;;;2214613;66;1288;-71
2022/04/23 02:09:36;;;;;;;;;;;;;;;;;;2213294;59;2088;-70
2022/04/23 02:12:10;;;;;;;;;;;;;;;;;;2217119;58;1453;-70
2022/04/23 02:14:44;;;;;;;;;;;;;;;;;;2217109;66;1232;-70
2022/04/23 02:17:18;;;;;;;;;;;;;;;;;;2216181;58;1652;-70
2022/04/23 02:19:52;;;;;;;;;;;;;;;;;;2216265;58;1819;-70
2022/04/23 02:22:28;;;;;;;;;;;;;;;;;;2217697;66;1192;-70
2022/04/23 02:25:01;;;;;;;;;;;;;;;;;;2212040;59;1167;-70
2022/04/23 02:27:41;;;;;;;;;;;;;;;;;;2217419;66;1932;-70
2022/04/23 02:30:15;;;;;;;;;;;;;;;;;;2217803;58;1201;-70
2022/04/23 02:32:49;;;;;;;;;;;;;;;;;;2217433;66;1233;-70
2022/04/23 02:35:22;;;;;;;;;;;;;;;;;;2217353;58;1510;-70
2022/04/23 02:38:01;;;;;;;;;;;;;;;;;;2217588;58;1704;-71
2022/04/23 02:40:34;;;;;;;;;;;;;;;;;;2218030;58;1696;-70
2022/04/23 02:43:08;;;;;;;;;;;;;;;;;;2213840;66;1946;-70
2022/04/23 02:45:41;;;;;;;;;;;;;;;;;;2217420;59;1203;-70
2022/04/23 02:48:15;;;;;;;;;;;;;;;;;;2218440;58;2016;-70
2022/04/23 02:50:48;;;;;;;;;;;;;;;;;;2217620;66;1237;-70
2022/04/23 02:53:26;;;;;;;;;;;;;;;;;;2218136;66;1134;-70
2022/04/23 02:56:02;;;;;;;;;;;;;;;;;;2217893;66;1218;-70
2022/04/23 02:58:35;;;;;;;;;;;;;;;;;;2217772;59;1173;-70
2022/04/23 03:01:10;;;;;;;;;;;;;;;;;;2217255;58;1904;-70
2022/04/23 03:03:43;;;;;;;;;;;;;;;;;;2218069;59;1139;-70
2022/04/23 03:06:17;;;;;;;;;;;;;;;;;;2218147;58;1219;-70
2022/04/23 03:08:53;;;;;;;;;;;;;;;;;;2217844;66;1936;-70
2022/04/23 03:11:26;;;;;;;;;;;;;;;;;;2218520;58;1286;-70
2022/04/23 03:14:00;;;;;;;;;;;;;;;;;;2217195;59;1260;-70
2022/04/23 03:16:33;;;;;;;;;;;;;;;;;;2217359;58;1599;-70
2022/04/23 03:19:06;;;;;;;;;;;;;;;;;;2217083;59;1262;-70
2022/04/23 03:21:39;;;;;;;;;;;;;;;;;;2218127;58;1553;-70
2022/04/23 03:24:15;;;;;;;;;;;;;;;;;;2217323;66;1160;-70
2022/04/23 03:26:48;;;;;;;;;;;;;;;;;;2216913;58;1446;-70
2022/04/23 03:29:22;;;;;;;;;;;;;;;;;;2218254;59;1927;-69
2022/04/23 03:31:55;;;;;;;;;;;;;;;;;;2217385;59;1312;-71
2022/04/23 03:34:28;;;;;;;;;;;;;;;;;;2217966;59;1295;-70
2022/04/23 03:37:01;;;;;;;;;;;;;;;;;;2218014;66;1279;-70
2022/04/23 03:39:37;;;;;;;;;;;;;;;;;;2217291;58;1822;-70
2022/04/23 03:42:11;;;;;;;;;;;;;;;;;;2217674;59;1105;-70
2022/04/23 03:44:44;;;;;;;;;;;;;;;;;;2217166;66;1266;-70
2022/04/23 03:47:17;;;;;;;;;;;;;;;;;;2218061;58;1239;-70
2022/04/23 03:49:50;;;;;;;;;;;;;;;;;;2217145;59;1931;-70
2022/04/23 03:52:23;;;;;;;;;;;;;;;;;;2214533;66;1295;-70
2022/04/23 03:54:59;;;;;;;;;;;;;;;;;;2216563;58;1282;-70
2022/04/23 03:57:32;;;;;;;;;;;;;;;;;;2218212;66;1131;-70
2022/04/23 04:00:06;;;;;;;;;;;;;;;;;;2217359;58;1818;-70
2022/04/23 04:02:39;;;;;;;;;;;;;;;;;;2217877;66;1297;-70
2022/04/23 04:05:13;;;;;;;;;;;;;;;;;;2217832;58;1834;-70
2022/04/23 04:07:47;;;;;;;;;;;;;;;;;;2218083;58;1187;-69
2022/04/23 04:10:24;;;;;;;;;;;;;;;;;;2217316;66;1941;-70
2022/04/23 04:12:57;;;;;;;;;;;;;;;;;;2213802;59;1506;-70
2022/04/23 04:15:31;;;;;;;;;;;;;;;;;;2216569;59;1156;-70
2022/04/23 04:18:04;;;;;;;;;;;;;;;;;;2217328;66;1226;-71
2022/04/23 04:20:39;;;;;;;;;;;;;;;;;;2216157;58;1564;-70
2022/04/23 04:23:13;;;;;;;;;;;;;;;;;;2216183;66;1259;-70
2022/04/23 04:25:49;;;;;;;;;;;;;;;;;;2218075;66;1262;-70
2022/04/23 04:28:22;;;;;;;;;;;;;;;;;;2218043;59;1982;-70
2022/04/23 04:33:44;;;;;;;;;;;;;;;;;;2216643;66;1145;-70
2022/04/23 04:36:17;;;;;;;;;;;;;;;;;;2217331;59;1324;-70
2022/04/23 04:38:50;;;;;;;;;;;;;;;;;;2216920;66;1128;-70
2022/04/23 04:41:29;;;;;;;;;;;;;;;;;;2216896;58;1788;-71
2022/04/23 04:44:02;;;;;;;;;;;;;;;;;;2216036;59;1116;-70
2022/04/23 04:46:36;;;;;;;;;;;;;;;;;;2217401;58;1110;-70
2022/04/23 04:49:09;;;;;;;;;;;;;;;;;;2218369;58;1981;-70
2022/04/23 04:51:42;;;;;;;;;;;;;;;;;;2217197;66;1101;-71
2022/04/23 04:54:17;;;;;;;;;;;;;;;;;;2216619;66;1278;-70
2022/04/23 04:56:54;;;;;;;;;;;;;;;;;;2217275;59;1215;-70
2022/04/23 04:59:27;;;;;;;;;;;;;;;;;;2214250;58;1701;-70
2022/04/23 05:02:01;;;;;;;;;;;;;;;;;;2217322;59;1211;-70
2022/04/23 05:04:34;;;;;;;;;;;;;;;;;;2217515;66;1145;-69
2022/04/23 05:07:07;;;;;;;;;;;;;;;;;;2217429;59;1395;-71
2022/04/23 05:09:40;;;;;;;;;;;;;;;;;;2217566;58;1934;-70
2022/04/23 05:12:16;;;;;;;;;;;;;;;;;;2218081;58;1318;-70
2022/04/23 05:14:49;;;;;;;;;;;;;;;;;;2216114;66;1254;-69
2022/04/23 05:17:22;;;;;;;;;;;;;;;;;;2217490;66;1235;-69
2022/04/23 05:19:56;;;;;;;;;;;;;;;;;;2218221;58;1778;-70
2022/04/23 05:22:29;;;;;;;;;;;;;;;;;;2212409;66;1199;-70
2022/04/23 05:25:02;;;;;;;;;;;;;;;;;;2216375;59;1124;-70
2022/04/23 05:27:38;;;;;;;;;;;;;;;;;;2217215;58;1646;-70
2022/04/23 05:30:11;;;;;;;;;;;;;;;;;;2214277;59;1931;-70
2022/04/23 05:32:44;;;;;;;;;;;;;;;;;;2218219;66;1122;-70
2022/04/23 05:35:17;;;;;;;;;;;;;;;;;;2219013;58;1559;-70
2022/04/23 05:37:50;;;;;;;;;;;;;;;;;;2213857;59;1609;-69
2022/04/23 05:40:24;;;;;;;;;;;;;;;;;;2216671;58;1798;-70
2022/04/23 05:43:00;;;;;;;;;;;;;;;;;;2216730;66;1329;-69
2022/04/23 05:45:33;;;;;;;;;;;;;;;;;;2215408;59;1420;-70
2022/04/23 05:48:07;;;;;;;;;;;;;;;;;;2217048;58;1279;-70
2022/04/23 05:50:40;;;;;;;;;;;;;;;;;;2216262;66;1945;-69
2022/04/23 05:53:13;;;;;;;;;;;;;;;;;;2217215;66;1134;-70
2022/04/23 05:55:46;;;;;;;;;;;;;;;;;;2216689;66;1191;-69
2022/04/23 05:58:22;;;;;;;;;;;;;;;;;;2217102;66;1112;-69
2022/04/23 06:00:56;;;;;;;;;;;;;;;;;;2218089;58;2091;-69
2022/04/23 06:03:29;;;;;;;;;;;;;;;;;;2217655;66;1197;-69
2022/04/23 06:06:02;;;;;;;;;;;;;;;;;;2217874;66;1102;-70
2022/04/23 06:08:35;;;;;;;;;;;;;;;;;;2218665;59;1348;-69
2022/04/23 06:11:08;;;;;;;;;;;;;;;;;;2217771;58;1927;-69
2022/04/23 06:13:44;;;;;;;;;;;;;;;;;;2217362;58;1690;-69
2022/04/23 06:16:17;;;;;;;;;;;;;;;;;;2217406;58;1582;-70
2022/04/23 06:18:50;;;;;;;;;;;;;;;;;;2217200;66;1238;-69
2022/04/23 06:21:23;;;;;;;;;;;;;;;;;;2216977;58;1923;-69
2022/04/23 06:23:57;;;;;;;;;;;;;;;;;;2217076;58;1248;-70
2022/04/23 06:26:30;;;;;;;;;;;;;;;;;;2217568;58;1655;-69
2022/04/23 06:29:05;;;;;;;;;;;;;;;;;;2218030;58;1977;-69
2022/04/23 06:31:39;;;;;;;;;;;;;;;;;;2214711;66;2069;-70
2022/04/23 06:34:12;;;;;;;;;;;;;;;;;;2218075;66;1266;-70
2022/04/23 06:36:45;;;;;;;;;;;;;;;;;;2217146;59;1247;-69
2022/04/23 06:39:18;;;;;;;;;;;;;;;;;;2217732;59;1257;-69
2022/04/23 06:41:51;;;;;;;;;;;;;;;;;;2217272;58;1554;-68
2022/04/23 06:44:27;;;;;;;;;;;;;;;;;;2217516;58;1727;-70
2022/04/23 06:47:01;;;;;;;;;;;;;;;;;;2216239;66;1179;-70
2022/04/23 06:49:34;;;;;;;;;;;;;;;;;;2218046;59;1943;-70
2022/04/23 06:52:07;;;;;;;;;;;;;;;;;;2216179;58;1558;-70
2022/04/23 06:54:40;;;;;;;;;;;;;;;;;;2213870;66;2105;-70
2022/04/23 06:57:13;;;;;;;;;;;;;;;;;;2217791;59;1213;-70
2022/04/23 06:59:49;;;;;;;;;;;;;;;;;;2218685;53;3605;-70
2022/04/23 07:02:22;;;;;;;;;;;;;;;;;;2213311;59;1615;-70
2022/04/23 07:04:56;;;;;;;;;;;;;;;;;;2213157;59;1767;-69
2022/04/23 07:07:29;;;;;;;;;;;;;;;;;;2213658;59;1341;-70
2022/04/23 07:10:02;;;;;;;;;;;;;;;;;;2215207;59;1925;-70
2022/04/23 07:12:35;;;;;;;;;;;;;;;;;;2214895;59;2091;-70
2022/04/23 07:15:14;;;;;;;;;;;;;;;;;;2215628;67;1092;-70
2022/04/23 07:17:47;;;;;;;;;;;;;;;;;;2215474;59;1209;-69
2022/04/23 07:20:21;;;;;;;;;;;;;;;;;;2213772;59;1755;-69
2022/04/23 07:25:43;;;;;;;;;;;;;;;;;;2214169;67;1074;-70
2022/04/23 07:28:16;;;;;;;;;;;;;;;;;;2214709;59;1409;-70
2022/04/23 07:30:52;;;;;;;;;;;;;;;;;;2213678;59;1992;-70
2022/04/23 07:39:03;;;;;;;;;;;;;;;;;;2213637;67;1179;-70
2022/04/23 07:41:36;;;;;;;;;;;;;;;;;;2215863;59;1623;-70
2022/04/23 07:44:09;;;;;;;;;;;;;;;;;;2215703;58;1684;-70
2022/04/23 07:46:45;;;;;;;;;;;;;;;;;;2215011;67;1207;-70
2022/04/23 07:49:19;;;;;;;;;;;;;;;;;;2215632;59;1992;-70
2022/04/23 07:51:52;;;;;;;;;;;;;;;;;;2215926;59;1882;-70
2022/04/23 07:54:25;;;;;;;;;;;;;;;;;;2212580;59;1898;-70
2022/04/23 07:56:59;;;;;;;;;;;;;;;;;;2214864;59;1582;-70
2022/04/23 07:59:32;;;;;;;;;;;;;;;;;;2215127;59;1659;-70
2022/04/23 08:02:08;;;;;;;;;;;;;;;;;;2215481;59;1328;-70
2022/04/23 08:04:42;;;;;;;;;;;;;;;;;;2215283;59;1497;-69
2022/04/23 08:07:15;;;;;;;;;;;;;;;;;;2215352;67;1099;-70
2022/04/23 08:09:48;;;;;;;;;;;;;;;;;;2215122;67;1925;-70
2022/04/23 08:12:21;;;;;;;;;;;;;;;;;;2211231;59;1312;-70
2022/04/23 08:14:54;;;;;;;;;;;;;;;;;;2213262;59;2052;-70
2022/04/23 08:17:30;;;;;;;;;;;;;;;;;;2214814;59;2339;-70
2022/04/23 08:20:03;;;;;;;;;;;;;;;;;;2213826;59;1917;-69
2022/04/23 08:22:37;;;;;;;;;;;;;;;;;;2214769;59;1190;-69
2022/04/23 08:25:11;;;;;;;;;;;;;;;;;;2214833;66;1207;-70
2022/04/23 08:27:50;;;;;;;;;;;;;;;;;;2214834;59;1766;-70
2022/04/23 08:30:34;;;;;;;;;;;;;;;;;;2214071;59;1928;-70
2022/04/23 08:33:10;;;;;;;;;;;;;;;;;;2214500;59;1171;-69
2022/04/23 08:35:43;;;;;;;;;;;;;;;;;;2214963;59;1180;-70
2022/04/23 08:38:17;;;;;;;;;;;;;;;;;;2214191;59;1725;-70
2022/04/23 08:40:50;;;;;;;;;;;;;;;;;;2215498;59;1913;-70
2022/04/23 08:43:23;;;;;;;;;;;;;;;;;;2214333;66;1285;-70
2022/04/23 08:45:57;;;;;;;;;;;;;;;;;;2216037;66;1436;-70
2022/04/23 08:48:36;;;;;;;;;;;;;;;;;;2213871;59;1678;-70
2022/04/23 08:51:14;;;;;;;;;;;;;;;;;;2214578;59;2018;-69
2022/04/23 08:53:49;;;;;;;;;;;;;;;;;;2212893;67;1171;-70
2022/04/23 08:56:22;;;;;;;;;;;;;;;;;;2214354;67;1120;-70
2022/04/23 08:58:56;;;;;;;;;;;;;;;;;;2214652;67;1312;-70
2022/04/23 09:01:33;;;;;;;;;;;;;;;;;;2215012;59;1974;-69
2022/04/23 09:04:09;;;;;;;;;;;;;;;;;;2217019;59;1566;-70
2022/04/23 09:06:43;;;;;;;;;;;;;;;;;;2216888;66;1170;-70
2022/04/23 09:09:19;;;;;;;;;;;;;;;;;;2214465;59;2085;-70
2022/04/23 09:11:53;;;;;;;;;;;;;;;;;;2216182;59;1933;-70
2022/04/23 09:14:27;;;;;;;;;;;;;;;;;;2216335;66;1163;-70
2022/04/23 09:25:46;;;;;;;;;;;;;;;;;;2216196;66;1130;-70
2022/04/23 09:28:19;;;;;;;;;;;;;;;;;;2214633;66;1247;-70
2022/04/23 09:30:54;;;;;;;;;;;;;;;;;;2216168;59;1937;-69
2022/04/23 09:33:44;;;;;;;;;;;;;;;;;;2213979;67;1210;-70
2022/04/23 09:36:20;;;;;;;;;;;;;;;;;;2213883;59;1172;-70
2022/04/23 09:39:03;;;;;;;;;;;;;;;;;;2214293;67;1283;-70
2022/04/23 09:41:37;;;;;;;;;;;;;;;;;;2216173;59;2055;-71
2022/04/23 09:44:12;;;;;;;;;;;;;;;;;;2212524;58;1583;-69
2022/04/23 09:46:45;;;;;;;;;;;;;;;;;;2212101;66;1193;-70
2022/04/23 09:49:21;;;;;;;;;;;;;;;;;;2214850;59;1282;-70
2022/04/23 09:52:08;;;;;;;;;;;;;;;;;;2216273;59;1995;-70
2022/04/23 09:54:42;;;;;;;;;;;;;;;;;;2211186;59;2037;-70
2022/04/23 09:57:15;;;;;;;;;;;;;;;;;;2215282;66;1042;-70
2022/04/23 09:59:48;;;;;;;;;;;;;;;;;;2211801;59;1831;-70
2022/04/23 10:02:21;;;;;;;;;;;;;;;;;;2215936;66;1131;-70
2022/04/23 10:04:57;;;;;;;;;;;;;;;;;;2215467;66;1263;-69
2022/04/23 10:07:37;;;;;;;;;;;;;;;;;;2215445;59;1779;-69
2022/04/23 10:10:13;;;;;;;;;;;;;;;;;;2217700;66;1935;-70
2022/04/23 10:12:47;;;;;;;;;;;;;;;;;;2212532;59;1563;-70
2022/04/23 10:15:20;;;;;;;;;;;;;;;;;;2213601;66;1203;-70
2022/04/23 10:17:55;;;;;;;;;;;;;;;;;;2216130;59;1254;-70
2022/04/23 10:20:30;;;;;;;;;;;;;;;;;;2215716;59;1944;-70
2022/04/23 10:23:10;;;;;;;;;;;;;;;;;;2216984;59;1124;-69
2022/04/23 10:25:47;;;;;;;;;;;;;;;;;;2216287;66;1055;-70
2022/04/23 10:28:21;;;;;;;;;;;;;;;;;;2213720;59;1677;-70
2022/04/23 10:31:10;;;;;;;;;;;;;;;;;;2215650;59;1989;-70
2022/04/23 10:33:46;;;;;;;;;;;;;;;;;;2214923;66;1268;-70
2022/04/23 10:36:19;;;;;;;;;;;;;;;;;;2216488;66;1238;-70
2022/04/23 10:39:15;;;;;;;;;;;;;;;;;;2215508;66;1150;-70
2022/04/23 10:41:49;;;;;;;;;;;;;;;;;;2213521;59;2050;-70
2022/04/23 10:44:23;;;;;;;;;;;;;;;;;;2213156;67;1136;-70
2022/04/23 10:46:59;;;;;;;;;;;;;;;;;;2216153;66;1212;-71
2022/04/23 10:49:32;;;;;;;;;;;;;;;;;;2214041;59;1585;-71
2022/04/23 10:52:05;;;;;;;;;;;;;;;;;;2214759;59;2379;-70
2022/04/23 10:55:02;;;;;;;;;;;;;;;;;;2215136;67;1175;-71
2022/04/23 10:57:39;;;;;;;;;;;;;;;;;;2209813;59;1116;-70
2022/04/23 11:00:13;;;;;;;;;;;;;;;;;;2214435;59;1835;-70
2022/04/23 11:02:50;;;;;;;;;;;;;;;;;;2215753;59;1738;-71
2022/04/23 11:14:27;;;;;;;;;;;;;;;;;;2216949;59;1561;-70
2022/04/23 11:17:03;;;;;;;;;;;;;;;;;;2213991;67;1331;-71
2022/04/23 11:19:36;;;;;;;;;;;;;;;;;;2213403;59;1869;-70
2022/04/23 11:22:10;;;;;;;;;;;;;;;;;;2215808;59;1275;-69
2022/04/23 11:24:43;;;;;;;;;;;;;;;;;;2212255;67;1408;-70
2022/04/23 11:27:27;;;;;;;;;;;;;;;;;;2214100;67;1229;-70
2022/04/23 11:30:00;;;;;;;;;;;;;;;;;;2214219;59;1301;-70
2022/04/23 11:32:37;;;;;;;;;;;;;;;;;;2214907;59;1989;-70
2022/04/23 11:35:10;;;;;;;;;;;;;;;;;;2215759;66;1223;-70
2022/04/23 11:37:43;;;;;;;;;;;;;;;;;;2215107;59;1139;-71
2022/04/23 11:40:21;;;;;;;;;;;;;;;;;;2211352;59;1818;-70
2022/04/23 11:42:54;;;;;;;;;;;;;;;;;;2216233;66;1096;-71
2022/04/23 11:45:27;;;;;;;;;;;;;;;;;;2215972;66;1111;-70
2022/04/23 11:48:11;;;;;;;;;;;;;;;;;;2213655;59;1361;-70
2022/04/23 11:50:44;;;;;;;;;;;;;;;;;;2213771;59;1961;-71
2022/04/23 11:53:18;;;;;;;;;;;;;;;;;;2214401;67;1136;-70
2022/04/23 11:55:51;;;;;;;;;;;;;;;;;;2212181;59;1649;-70
2022/04/23 11:58:24;;;;;;;;;;;;;;;;;;2215501;59;1661;-70
2022/04/23 12:00:57;;;;;;;;;;;;;;;;;;2215215;59;1716;-70
2022/04/23 12:03:33;;;;;;;;;;;;;;;;;;2212441;59;1654;-70
2022/04/23 12:06:06;;;;;;;;;;;;;;;;;;2216277;59;1238;-70
2022/04/23 12:08:39;;;;;;;;;;;;;;;;;;2216993;66;1234;-69
2022/04/23 12:11:26;;;;;;;;;;;;;;;;;;2216007;58;1980;-71
2022/04/23 12:14:02;;;;;;;;;;;;;;;;;;2215885;59;1774;-70
2022/04/23 12:16:37;;;;;;;;;;;;;;;;;;2216563;66;1179;-70
2022/04/23 12:19:14;;;;;;;;;;;;;;;;;;2211319;67;1122;-70
2022/04/23 12:21:58;;;;;;;;;;;;;;;;;;2215044;59;2124;-70
2022/04/23 12:24:35;;;;;;;;;;;;;;;;;;2216199;66;1255;-70
2022/04/23 12:27:08;;;;;;;;;;;;;;;;;;2214044;59;1238;-71
2022/04/23 12:41:16;;;;;;;;;;;;;;;;;;2217016;59;1744;-70
2022/04/23 12:43:49;;;;;;;;;;;;;;;;;;2216853;59;1146;-69
2022/04/23 12:46:22;;;;;;;;;;;;;;;;;;2214187;59;1159;-70
2022/04/23 12:48:59;;;;;;;;;;;;;;;;;;2214133;59;1427;-70
2022/04/23 12:51:35;;;;;;;;;;;;;;;;;;2212891;59;1925;-71
2022/04/23 12:54:14;;;;;;;;;;;;;;;;;;2214177;59;1292;-70
2022/04/23 12:56:48;;;;;;;;;;;;;;;;;;2213565;67;1070;-70
2022/04/23 12:59:21;;;;;;;;;;;;;;;;;;2213251;59;1143;-72
2022/04/23 13:01:57;;;;;;;;;;;;;;;;;;2213855;53;3643;-69
2022/04/23 13:04:30;;;;;;;;;;;;;;;;;;2213070;59;1998;-70
2022/04/23 13:09:57;;;;;;;;;;;;;;;;;;2211105;59;1255;-70
2022/04/23 13:12:30;;;;;;;;;;;;;;;;;;2211993;59;1941;-71
2022/04/23 13:15:04;;;;;;;;;;;;;;;;;;2211636;59;1606;-71
2022/04/23 13:17:38;;;;;;;;;;;;;;;;;;2211084;59;1682;-71
2022/04/23 13:20:13;;;;;;;;;;;;;;;;;;2212768;59;1678;-71
2022/04/23 13:22:48;;;;;;;;;;;;;;;;;;2211372;67;1185;-69
2022/04/23 13:25:22;;;;;;;;;;;;;;;;;;2213259;59;1565;-71
2022/04/23 13:27:55;;;;;;;;;;;;;;;;;;2211090;59;1601;-71
2022/04/23 13:30:28;;;;;;;;;;;;;;;;;;2212449;59;1595;-71
2022/04/23 13:33:02;;;;;;;;;;;;;;;;;;2210855;59;1937;-70
2022/04/23 13:35:35;;;;;;;;;;;;;;;;;;2211711;59;1202;-70
2022/04/23 13:38:13;;;;;;;;;;;;;;;;;;2212556;59;1316;-70
2022/04/23 13:40:47;;;;;;;;;;;;;;;;;;2212460;59;1620;-70
2022/04/23 13:43:20;;;;;;;;;;;;;;;;;;2213215;67;1394;-70
2022/04/23 13:45:53;;;;;;;;;;;;;;;;;;2212573;59;1274;-71
2022/04/23 13:48:27;;;;;;;;;;;;;;;;;;2212081;67;1449;-71
2022/04/23 13:51:00;;;;;;;;;;;;;;;;;;2210520;59;1764;-71
2022/04/23 13:53:36;;;;;;;;;;;;;;;;;;2211747;59;1971;-70
2022/04/23 13:56:09;;;;;;;;;;;;;;;;;;2213234;59;1163;-71
2022/04/23 13:58:42;;;;;;;;;;;;;;;;;;2212577;67;1178;-70
2022/04/23 14:01:16;;;;;;;;;;;;;;;;;;2212408;59;2145;-71
2022/04/23 14:12:15;;;;;;;;;;;;;;;;;;2212062;59;1927;-71
2022/04/23 14:14:48;;;;;;;;;;;;;;;;;;2212024;67;1259;-71
2022/04/23 14:17:21;;;;;;;;;;;;;;;;;;2211383;59;1631;-71
2022/04/23 14:19:54;;;;;;;;;;;;;;;;;;2212452;59;1629;-70
2022/04/23 14:22:28;;;;;;;;;;;;;;;;;;2212180;59;2133;-70
2022/04/23 14:25:04;;;;;;;;;;;;;;;;;;2211722;59;1640;-70
2022/04/23 14:27:38;;;;;;;;;;;;;;;;;;2212956;59;1664;-70
2022/04/23 14:30:11;;;;;;;;;;;;;;;;;;2211015;59;1618;-71
2022/04/23 14:32:45;;;;;;;;;;;;;;;;;;2210496;59;1988;-70
2022/04/23 14:35:18;;;;;;;;;;;;;;;;;;2211616;59;1156;-70
2022/04/23 14:37:51;;;;;;;;;;;;;;;;;;2210912;59;1614;-69
2022/04/23 14:40:27;;;;;;;;;;;;;;;;;;2212027;59;1625;-70
2022/04/23 14:43:01;;;;;;;;;;;;;;;;;;2213409;67;1100;-70
2022/04/23 14:45:34;;;;;;;;;;;;;;;;;;2211370;67;1172;-70
2022/04/23 14:48:08;;;;;;;;;;;;;;;;;;2212159;59;1526;-70
2022/04/23 14:53:30;;;;;;;;;;;;;;;;;;2211925;59;1991;-70
2022/04/23 14:56:06;;;;;;;;;;;;;;;;;;2212155;59;1236;-70
2022/04/23 14:58:39;;;;;;;;;;;;;;;;;;2212175;67;1179;-69
2022/04/23 15:01:12;;;;;;;;;;;;;;;;;;2212737;59;1684;-70
2022/04/23 15:03:46;;;;;;;;;;;;;;;;;;2212611;59;1764;-70
2022/04/23 15:06:21;;;;;;;;;;;;;;;;;;2211762;59;2342;-69
2022/04/23 15:08:54;;;;;;;;;;;;;;;;;;2212665;59;1589;-70
2022/04/23 15:11:33;;;;;;;;;;;;;;;;;;2212566;59;1586;-70
2022/04/23 15:14:07;;;;;;;;;;;;;;;;;;2211715;59;1382;-70
2022/04/23 15:16:40;;;;;;;;;;;;;;;;;;2213484;67;1207;-70
2022/04/23 15:19:13;;;;;;;;;;;;;;;;;;2212617;59;1361;-69
2022/04/23 15:21:46;;;;;;;;;;;;;;;;;;2210992;59;2193;-69
2022/04/23 15:24:19;;;;;;;;;;;;;;;;;;2212723;59;1696;-69
2022/04/23 15:26:56;;;;;;;;;;;;;;;;;;2212935;59;1741;-70
2022/04/23 15:29:29;;;;;;;;;;;;;;;;;;2213274;59;1979;-70
2022/04/23 15:32:02;;;;;;;;;;;;;;;;;;2213477;59;1927;-70
2022/04/23 15:34:36;;;;;;;;;;;;;;;;;;2212958;59;1557;-70
2022/04/23 15:37:09;;;;;;;;;;;;;;;;;;2213338;59;1268;-70
2022/04/23 15:39:42;;;;;;;;;;;;;;;;;;2212263;59;1842;-70
2022/04/23 15:42:18;;;;;;;;;;;;;;;;;;2214723;67;1202;-70
2022/04/23 15:44:51;;;;;;;;;;;;;;;;;;2212477;59;1585;-70
2022/04/23 15:47:25;;;;;;;;;;;;;;;;;;2213918;59;1302;-70
2022/04/23 15:49:58;;;;;;;;;;;;;;;;;;2212375;59;1640;-69
2022/04/23 15:52:31;;;;;;;;;;;;;;;;;;2211219;59;1931;-70
2022/04/23 15:55:05;;;;;;;;;;;;;;;;;;2212013;59;1327;-70
2022/04/23 15:57:41;;;;;;;;;;;;;;;;;;2211351;59;1894;-69
2022/04/23 16:00:15;;;;;;;;;;;;;;;;;;2211635;59;1790;-70
2022/04/23 16:03:24;;;;;;;;;;;;;;;;;;2211155;59;1791;-69
2022/04/23 16:05:42;;;;;;;;;;;;;;;;;;2213195;59;1132;-70
2022/04/23 16:08:15;;;;;;;;;;;;;;;;;;2212655;59;1172;-70
2022/04/23 16:10:48;;;;;;;;;;;;;;;;;;2212447;59;2011;-70
2022/04/23 16:13:25;;;;;;;;;;;;;;;;;;2210584;59;1992;-70
2022/04/23 16:15:58;;;;;;;;;;;;;;;;;;2211649;67;1087;-70
2022/04/23 16:18:32;;;;;;;;;;;;;;;;;;2211340;59;1697;-70
2022/04/23 16:21:05;;;;;;;;;;;;;;;;;;2211584;59;1611;-70
2022/04/23 16:23:38;;;;;;;;;;;;;;;;;;2211695;59;1642;-69
2022/04/23 16:26:12;;;;;;;;;;;;;;;;;;2209723;59;2026;-70
2022/04/23 16:28:48;;;;;;;;;;;;;;;;;;2210457;59;2224;-70
2022/04/23 16:31:21;;;;;;;;;;;;;;;;;;2208731;59;1801;-69
2022/04/23 16:33:56;;;;;;;;;;;;;;;;;;2212294;59;1941;-70
2022/04/23 16:47:48;;;;;;;;;;;;;;;;;;2211366;59;1341;-70
2022/04/23 16:50:21;;;;;;;;;;;;;;;;;;2211864;67;1242;-70
2022/04/23 16:52:54;;;;;;;;;;;;;;;;;;2213301;59;1995;-69
2022/04/23 16:55:27;;;;;;;;;;;;;;;;;;2213506;67;1461;-70
2022/04/23 16:58:00;;;;;;;;;;;;;;;;;;2213920;59;1266;-70
2022/04/23 17:00:36;;;;;;;;;;;;;;;;;;2212032;59;2097;-69
2022/04/23 17:03:11;;;;;;;;;;;;;;;;;;2208827;59;1656;-70
2022/04/23 17:05:44;;;;;;;;;;;;;;;;;;2214209;59;1169;-70
2022/04/23 17:08:17;;;;;;;;;;;;;;;;;;2212925;59;1279;-70
2022/04/23 17:10:50;;;;;;;;;;;;;;;;;;2211437;59;2033;-70
2022/04/23 17:13:24;;;;;;;;;;;;;;;;;;2209994;59;2963;-70
2022/04/23 17:15:59;;;;;;;;;;;;;;;;;;2210643;59;2306;-70
2022/04/23 17:18:33;;;;;;;;;;;;;;;;;;2210301;59;1945;-70
2022/04/23 17:21:06;;;;;;;;;;;;;;;;;;2210846;59;1909;-70
2022/04/23 17:23:39;;;;;;;;;;;;;;;;;;2212265;59;1640;-70
2022/04/23 17:26:13;;;;;;;;;;;;;;;;;;2210940;59;2424;-69
2022/04/23 17:28:46;;;;;;;;;;;;;;;;;;2211897;59;1677;-70
2022/04/23 17:31:22;;;;;;;;;;;;;;;;;;2209885;59;1821;-70
2022/04/23 17:33:56;;;;;;;;;;;;;;;;;;2208501;59;1923;-70
2022/04/23 17:36:29;;;;;;;;;;;;;;;;;;2211289;59;1269;-70
2022/04/23 17:39:04;;;;;;;;;;;;;;;;;;2211411;59;1169;-69
2022/04/23 17:41:38;;;;;;;;;;;;;;;;;;2211287;59;1700;-70
2022/04/23 17:44:11;;;;;;;;;;;;;;;;;;2212549;59;1543;-70
2022/04/23 17:46:49;;;;;;;;;;;;;;;;;;2211764;59;1803;-69
2022/04/23 17:49:22;;;;;;;;;;;;;;;;;;2211411;59;1708;-70
2022/04/23 17:51:55;;;;;;;;;;;;;;;;;;2212504;67;1254;-69
2022/04/23 17:54:29;;;;;;;;;;;;;;;;;;2212459;59;1973;-71
2022/04/23 17:57:02;;;;;;;;;;;;;;;;;;2211518;59;1593;-70
2022/04/23 17:59:35;;;;;;;;;;;;;;;;;;2211818;59;1253;-71
2022/04/23 18:07:51;;;;;;;;;;;;;;;;;;2213219;59;1846;-69
2022/04/23 18:13:09;;;;;;;;;;;;;;;;;;2212640;59;1925;-70
2022/04/23 18:15:42;;;;;;;;;;;;;;;;;;2212329;59;1130;-70
2022/04/23 18:18:19;;;;;;;;;;;;;;;;;;2211677;59;1195;-70
2022/04/23 18:20:52;;;;;;;;;;;;;;;;;;2212080;59;2248;-70
2022/04/23 18:23:25;;;;;;;;;;;;;;;;;;2211002;59;1147;-70
2022/04/23 18:25:58;;;;;;;;;;;;;;;;;;2213050;59;1975;-70
2022/04/23 18:28:33;;;;;;;;;;;;;;;;;;2211974;59;1589;-70
2022/04/23 18:31:06;;;;;;;;;;;;;;;;;;2212715;59;1594;-70
2022/04/23 18:33:43;;;;;;;;;;;;;;;;;;2212913;59;1935;-70
2022/04/23 18:36:16;;;;;;;;;;;;;;;;;;2213121;59;1134;-70
2022/04/23 18:38:49;;;;;;;;;;;;;;;;;;2213120;67;1178;-70
2022/04/23 18:41:24;;;;;;;;;;;;;;;;;;2212397;59;1910;-70
2022/04/23 18:43:58;;;;;;;;;;;;;;;;;;2212514;59;1252;-70
2022/04/23 18:46:31;;;;;;;;;;;;;;;;;;2212596;59;1249;-69
2022/04/23 18:49:07;;;;;;;;;;;;;;;;;;2212662;59;1227;-70
2022/04/23 18:51:40;;;;;;;;;;;;;;;;;;2212015;59;1869;-71
2022/04/23 18:54:14;;;;;;;;;;;;;;;;;;2212408;59;1929;-70
2022/04/23 18:56:47;;;;;;;;;;;;;;;;;;2212696;59;1149;-70
2022/04/23 18:59:20;;;;;;;;;;;;;;;;;;2211403;59;1499;-69
2022/04/23 19:01:55;;;;;;;;;;;;;;;;;;2217210;58;3671;-70
2022/04/23 19:04:32;;;;;;;;;;;;;;;;;;2218325;58;1566;-70
2022/04/23 19:07:05;;;;;;;;;;;;;;;;;;2219125;58;1330;-70